sensor_id;sensor_type;location;lat;lon;timestamp;temperature;humidity
11650;DHT22;5881;48.522;7.682;2023-07-08T00:00:44;20.50;1.00
11650;DHT22;5881;48.522;7.682;2023-07-08T00:03:19;20.50;1.00
11650;DHT22;5881;48.522;7.682;2023-07-08T00:05:47;20.50;1.00
11650;DHT22;5881;48.522;7.682;2023-07-08T00:08:17;20.50;1.00
11650;DHT22;5881;48.522;7.682;2023-07-08T00:10:44;20.40;1.00
11650;DHT22;5881;48.522;7.682;2023-07-08T00:13:10;20.50;1.00
11650;DHT22;5881;48.522;7.682;2023-07-08T00:15:37;20.30;1.00
11650;DHT22;5881;48.522;7.682;2023-07-08T00:18:11;20.40;1.00
11650;DHT22;5881;48.522;7.682;2023-07-08T00:20:39;20.10;1.00
11650;DHT22;5881;48.522;7.682;2023-07-08T00:23:07;20.00;1.00
11650;DHT22;5881;48.522;7.682;2023-07-08T00:25:33;20.10;1.00
11650;DHT22;5881;48.522;7.682;2023-07-08T00:27:59;20.00;1.00
11650;DHT22;5881;48.522;7.682;2023-07-08T00:30:29;20.00;1.00
11650;DHT22;5881;48.522;7.682;2023-07-08T00:32:56;20.00;1.00
11650;DHT22;5881;48.522;7.682;2023-07-08T00:35:24;19.90;1.00
11650;DHT22;5881;48.522;7.682;2023-07-08T00:37:52;19.80;1.00
11650;DHT22;5881;48.522;7.682;2023-07-08T00:40:31;19.80;1.00
11650;DHT22;5881;48.522;7.682;2023-07-08T00:43:00;19.70;1.00
11650;DHT22;5881;48.522;7.682;2023-07-08T00:50:44;19.70;1.00
11650;DHT22;5881;48.522;7.682;2023-07-08T00:53:30;19.80;1.00
11650;DHT22;5881;48.522;7.682;2023-07-08T00:56:08;19.80;1.00
11650;DHT22;5881;48.522;7.682;2023-07-08T00:58:43;19.60;1.00
11650;DHT22;5881;48.522;7.682;2023-07-08T01:01:10;19.60;1.00
11650;DHT22;5881;48.522;7.682;2023-07-08T01:03:48;19.60;1.00
11650;DHT22;5881;48.522;7.682;2023-07-08T01:06:17;19.60;1.00
11650;DHT22;5881;48.522;7.682;2023-07-08T01:08:43;19.50;1.00
11650;DHT22;5881;48.522;7.682;2023-07-08T01:11:09;19.50;1.00
11650;DHT22;5881;48.522;7.682;2023-07-08T01:13:40;19.50;1.00
11650;DHT22;5881;48.522;7.682;2023-07-08T01:16:07;19.40;1.00
11650;DHT22;5881;48.522;7.682;2023-07-08T01:18:33;19.50;1.00
11650;DHT22;5881;48.522;7.682;2023-07-08T01:21:05;19.60;1.00
11650;DHT22;5881;48.522;7.682;2023-07-08T01:23:33;19.40;1.00
11650;DHT22;5881;48.522;7.682;2023-07-08T01:25:59;19.40;1.00
11650;DHT22;5881;48.522;7.682;2023-07-08T01:28:26;19.40;1.00
11650;DHT22;5881;48.522;7.682;2023-07-08T01:30:52;19.50;1.00
11650;DHT22;5881;48.522;7.682;2023-07-08T01:33:20;19.40;1.00
11650;DHT22;5881;48.522;7.682;2023-07-08T01:35:47;19.30;1.00
11650;DHT22;5881;48.522;7.682;2023-07-08T01:38:21;19.20;1.00
11650;DHT22;5881;48.522;7.682;2023-07-08T01:40:53;19.30;1.00
11650;DHT22;5881;48.522;7.682;2023-07-08T01:43:19;19.20;1.00
11650;DHT22;5881;48.522;7.682;2023-07-08T01:45:45;19.20;1.00
11650;DHT22;5881;48.522;7.682;2023-07-08T01:48:18;19.20;1.00
11650;DHT22;5881;48.522;7.682;2023-07-08T01:50:51;19.20;1.00
11650;DHT22;5881;48.522;7.682;2023-07-08T01:53:29;19.20;1.00
11650;DHT22;5881;48.522;7.682;2023-07-08T01:55:55;19.10;1.00
11650;DHT22;5881;48.522;7.682;2023-07-08T01:58:20;19.10;1.00
11650;DHT22;5881;48.522;7.682;2023-07-08T02:00:46;19.00;1.00
11650;DHT22;5881;48.522;7.682;2023-07-08T02:03:14;19.00;1.00
11650;DHT22;5881;48.522;7.682;2023-07-08T02:05:40;18.90;1.00
11650;DHT22;5881;48.522;7.682;2023-07-08T02:08:05;18.90;1.00
11650;DHT22;5881;48.522;7.682;2023-07-08T02:10:31;18.80;1.00
11650;DHT22;5881;48.522;7.682;2023-07-08T02:12:56;18.80;1.00
11650;DHT22;5881;48.522;7.682;2023-07-08T02:15:22;18.60;1.00
11650;DHT22;5881;48.522;7.682;2023-07-08T02:17:48;18.70;1.00
11650;DHT22;5881;48.522;7.682;2023-07-08T02:20:14;18.60;1.00
11650;DHT22;5881;48.522;7.682;2023-07-08T02:22:40;18.60;1.00
11650;DHT22;5881;48.522;7.682;2023-07-08T02:25:06;18.60;1.00
11650;DHT22;5881;48.522;7.682;2023-07-08T02:27:32;18.50;1.00
11650;DHT22;5881;48.522;7.682;2023-07-08T02:29:57;18.60;1.00
11650;DHT22;5881;48.522;7.682;2023-07-08T02:32:23;18.60;1.00
11650;DHT22;5881;48.522;7.682;2023-07-08T02:34:48;18.70;1.00
11650;DHT22;5881;48.522;7.682;2023-07-08T02:37:14;18.60;1.00
11650;DHT22;5881;48.522;7.682;2023-07-08T02:39:39;18.60;1.00
11650;DHT22;5881;48.522;7.682;2023-07-08T02:42:05;18.70;1.00
11650;DHT22;5881;48.522;7.682;2023-07-08T02:44:30;18.70;1.00
11650;DHT22;5881;48.522;7.682;2023-07-08T02:46:56;18.70;1.00
11650;DHT22;5881;48.522;7.682;2023-07-08T02:49:22;18.80;1.00
11650;DHT22;5881;48.522;7.682;2023-07-08T02:51:47;18.90;1.00
11650;DHT22;5881;48.522;7.682;2023-07-08T02:54:13;18.90;1.00
11650;DHT22;5881;48.522;7.682;2023-07-08T02:56:38;18.90;1.00
11650;DHT22;5881;48.522;7.682;2023-07-08T02:59:04;19.00;1.00
11650;DHT22;5881;48.522;7.682;2023-07-08T03:01:30;18.90;1.00
11650;DHT22;5881;48.522;7.682;2023-07-08T03:03:56;18.80;1.00
11650;DHT22;5881;48.522;7.682;2023-07-08T03:06:25;18.90;1.00
11650;DHT22;5881;48.522;7.682;2023-07-08T03:08:51;19.00;1.00
11650;DHT22;5881;48.522;7.682;2023-07-08T03:11:16;19.00;1.00
11650;DHT22;5881;48.522;7.682;2023-07-08T03:13:42;18.80;1.00
11650;DHT22;5881;48.522;7.682;2023-07-08T03:16:08;18.70;1.00
11650;DHT22;5881;48.522;7.682;2023-07-08T03:18:38;18.70;1.00
11650;DHT22;5881;48.522;7.682;2023-07-08T03:21:12;18.60;1.00
11650;DHT22;5881;48.522;7.682;2023-07-08T03:23:38;18.40;1.00
11650;DHT22;5881;48.522;7.682;2023-07-08T03:26:04;18.30;1.00
11650;DHT22;5881;48.522;7.682;2023-07-08T03:28:29;18.20;1.00
11650;DHT22;5881;48.522;7.682;2023-07-08T03:30:55;18.20;1.00
11650;DHT22;5881;48.522;7.682;2023-07-08T03:33:21;18.10;1.00
11650;DHT22;5881;48.522;7.682;2023-07-08T03:35:46;18.10;1.00
11650;DHT22;5881;48.522;7.682;2023-07-08T03:38:12;18.10;1.00
11650;DHT22;5881;48.522;7.682;2023-07-08T03:40:38;18.10;1.00
11650;DHT22;5881;48.522;7.682;2023-07-08T03:43:03;18.10;1.00
11650;DHT22;5881;48.522;7.682;2023-07-08T03:45:29;17.90;1.00
11650;DHT22;5881;48.522;7.682;2023-07-08T03:47:55;17.90;1.00
11650;DHT22;5881;48.522;7.682;2023-07-08T03:50:25;17.90;1.00
11650;DHT22;5881;48.522;7.682;2023-07-08T03:52:53;18.10;1.00
11650;DHT22;5881;48.522;7.682;2023-07-08T03:55:19;18.10;1.00
11650;DHT22;5881;48.522;7.682;2023-07-08T03:57:45;18.10;1.00
11650;DHT22;5881;48.522;7.682;2023-07-08T04:00:11;18.20;1.00
11650;DHT22;5881;48.522;7.682;2023-07-08T04:02:42;18.10;1.00
11650;DHT22;5881;48.522;7.682;2023-07-08T04:05:20;18.20;1.00
11650;DHT22;5881;48.522;7.682;2023-07-08T04:07:47;18.10;1.00
11650;DHT22;5881;48.522;7.682;2023-07-08T04:10:13;18.10;1.00
11650;DHT22;5881;48.522;7.682;2023-07-08T04:12:39;18.20;1.00
11650;DHT22;5881;48.522;7.682;2023-07-08T04:15:07;18.30;1.00
11650;DHT22;5881;48.522;7.682;2023-07-08T04:17:37;18.30;1.00
11650;DHT22;5881;48.522;7.682;2023-07-08T04:20:07;18.40;1.00
11650;DHT22;5881;48.522;7.682;2023-07-08T04:22:36;18.50;1.00
11650;DHT22;5881;48.522;7.682;2023-07-08T04:25:02;18.70;1.00
11650;DHT22;5881;48.522;7.682;2023-07-08T04:27:30;18.80;1.00
11650;DHT22;5881;48.522;7.682;2023-07-08T04:29:55;19.00;1.00
11650;DHT22;5881;48.522;7.682;2023-07-08T04:32:21;19.20;1.00
11650;DHT22;5881;48.522;7.682;2023-07-08T04:34:50;19.30;1.00
11650;DHT22;5881;48.522;7.682;2023-07-08T04:37:16;19.50;1.00
11650;DHT22;5881;48.522;7.682;2023-07-08T04:39:42;19.60;1.00
11650;DHT22;5881;48.522;7.682;2023-07-08T04:42:07;19.70;1.00
11650;DHT22;5881;48.522;7.682;2023-07-08T04:44:33;19.70;1.00
11650;DHT22;5881;48.522;7.682;2023-07-08T04:46:59;19.90;1.00
11650;DHT22;5881;48.522;7.682;2023-07-08T04:49:25;20.00;1.00
11650;DHT22;5881;48.522;7.682;2023-07-08T04:51:53;20.20;1.00
11650;DHT22;5881;48.522;7.682;2023-07-08T04:54:19;20.20;1.00
11650;DHT22;5881;48.522;7.682;2023-07-08T04:56:48;20.20;1.00
11650;DHT22;5881;48.522;7.682;2023-07-08T04:59:17;20.20;1.00
11650;DHT22;5881;48.522;7.682;2023-07-08T05:01:43;20.20;1.00
11650;DHT22;5881;48.522;7.682;2023-07-08T05:04:13;20.50;1.00
11650;DHT22;5881;48.522;7.682;2023-07-08T05:06:39;20.60;1.00
11650;DHT22;5881;48.522;7.682;2023-07-08T05:09:05;20.80;1.00
11650;DHT22;5881;48.522;7.682;2023-07-08T05:11:31;20.90;1.00
11650;DHT22;5881;48.522;7.682;2023-07-08T05:13:58;21.20;1.00
11650;DHT22;5881;48.522;7.682;2023-07-08T05:16:24;21.60;1.00
11650;DHT22;5881;48.522;7.682;2023-07-08T05:18:49;21.90;1.00
11650;DHT22;5881;48.522;7.682;2023-07-08T05:21:15;22.10;1.00
11650;DHT22;5881;48.522;7.682;2023-07-08T05:23:41;22.30;1.00
11650;DHT22;5881;48.522;7.682;2023-07-08T05:26:07;22.40;1.00
11650;DHT22;5881;48.522;7.682;2023-07-08T05:28:33;22.40;1.00
11650;DHT22;5881;48.522;7.682;2023-07-08T05:30:59;22.60;1.00
11650;DHT22;5881;48.522;7.682;2023-07-08T05:33:27;22.30;1.00
11650;DHT22;5881;48.522;7.682;2023-07-08T05:35:53;22.00;1.00
11650;DHT22;5881;48.522;7.682;2023-07-08T05:38:19;21.70;1.00
11650;DHT22;5881;48.522;7.682;2023-07-08T05:40:49;21.60;1.00
11650;DHT22;5881;48.522;7.682;2023-07-08T05:43:16;21.50;1.00
11650;DHT22;5881;48.522;7.682;2023-07-08T05:45:42;21.40;1.00
11650;DHT22;5881;48.522;7.682;2023-07-08T05:48:08;21.40;1.00
11650;DHT22;5881;48.522;7.682;2023-07-08T05:50:34;21.40;1.00
11650;DHT22;5881;48.522;7.682;2023-07-08T05:52:59;21.50;1.00
11650;DHT22;5881;48.522;7.682;2023-07-08T05:55:25;21.60;1.00
11650;DHT22;5881;48.522;7.682;2023-07-08T05:57:50;21.70;1.00
11650;DHT22;5881;48.522;7.682;2023-07-08T06:00:16;21.80;1.00
11650;DHT22;5881;48.522;7.682;2023-07-08T06:02:41;22.00;1.00
11650;DHT22;5881;48.522;7.682;2023-07-08T06:05:07;22.30;1.00
11650;DHT22;5881;48.522;7.682;2023-07-08T06:07:33;22.60;1.00
11650;DHT22;5881;48.522;7.682;2023-07-08T06:09:59;22.80;1.00
11650;DHT22;5881;48.522;7.682;2023-07-08T06:12:25;22.70;1.00
11650;DHT22;5881;48.522;7.682;2023-07-08T06:14:51;23.10;1.00
11650;DHT22;5881;48.522;7.682;2023-07-08T06:17:17;23.10;1.00
11650;DHT22;5881;48.522;7.682;2023-07-08T06:19:43;23.10;1.00
11650;DHT22;5881;48.522;7.682;2023-07-08T06:22:09;23.40;1.00
11650;DHT22;5881;48.522;7.682;2023-07-08T06:24:35;23.30;1.00
11650;DHT22;5881;48.522;7.682;2023-07-08T06:27:00;23.10;1.00
11650;DHT22;5881;48.522;7.682;2023-07-08T06:29:26;23.20;1.00
11650;DHT22;5881;48.522;7.682;2023-07-08T06:31:52;23.60;1.00
11650;DHT22;5881;48.522;7.682;2023-07-08T06:34:18;23.70;1.00
11650;DHT22;5881;48.522;7.682;2023-07-08T06:36:44;23.60;1.00
11650;DHT22;5881;48.522;7.682;2023-07-08T06:39:10;23.40;1.00
11650;DHT22;5881;48.522;7.682;2023-07-08T06:41:37;23.10;1.00
11650;DHT22;5881;48.522;7.682;2023-07-08T06:44:03;23.40;1.00
11650;DHT22;5881;48.522;7.682;2023-07-08T06:46:29;24.40;1.00
11650;DHT22;5881;48.522;7.682;2023-07-08T06:48:55;24.40;1.00
11650;DHT22;5881;48.522;7.682;2023-07-08T06:51:20;25.70;1.00
11650;DHT22;5881;48.522;7.682;2023-07-08T06:53:46;26.20;1.00
11650;DHT22;5881;48.522;7.682;2023-07-08T06:56:12;26.20;1.00
11650;DHT22;5881;48.522;7.682;2023-07-08T06:58:37;25.50;1.00
11650;DHT22;5881;48.522;7.682;2023-07-08T07:01:03;25.00;1.00
11650;DHT22;5881;48.522;7.682;2023-07-08T07:03:28;24.80;1.00
11650;DHT22;5881;48.522;7.682;2023-07-08T07:05:54;24.40;1.00
11650;DHT22;5881;48.522;7.682;2023-07-08T07:08:20;24.00;1.00
11650;DHT22;5881;48.522;7.682;2023-07-08T07:10:45;24.30;1.00
11650;DHT22;5881;48.522;7.682;2023-07-08T07:13:11;24.30;1.00
11650;DHT22;5881;48.522;7.682;2023-07-08T07:15:37;23.90;1.00
11650;DHT22;5881;48.522;7.682;2023-07-08T07:18:03;23.80;1.00
11650;DHT22;5881;48.522;7.682;2023-07-08T07:20:29;23.60;1.00
11650;DHT22;5881;48.522;7.682;2023-07-08T07:22:55;23.50;1.00
11650;DHT22;5881;48.522;7.682;2023-07-08T07:25:21;23.50;1.00
11650;DHT22;5881;48.522;7.682;2023-07-08T07:27:46;23.40;1.00
11650;DHT22;5881;48.522;7.682;2023-07-08T07:30:13;23.50;1.00
11650;DHT22;5881;48.522;7.682;2023-07-08T07:32:41;23.50;1.00
11650;DHT22;5881;48.522;7.682;2023-07-08T07:35:07;23.50;1.00
11650;DHT22;5881;48.522;7.682;2023-07-08T07:37:36;23.40;1.00
11650;DHT22;5881;48.522;7.682;2023-07-08T07:40:01;23.40;1.00
11650;DHT22;5881;48.522;7.682;2023-07-08T07:42:27;23.80;1.00
11650;DHT22;5881;48.522;7.682;2023-07-08T07:44:53;23.50;1.00
11650;DHT22;5881;48.522;7.682;2023-07-08T07:47:19;23.80;1.00
11650;DHT22;5881;48.522;7.682;2023-07-08T07:49:44;23.80;1.00
11650;DHT22;5881;48.522;7.682;2023-07-08T07:52:10;23.80;1.00
11650;DHT22;5881;48.522;7.682;2023-07-08T07:54:39;24.10;1.00
11650;DHT22;5881;48.522;7.682;2023-07-08T07:57:05;24.10;1.00
11650;DHT22;5881;48.522;7.682;2023-07-08T07:59:30;24.10;1.00
11650;DHT22;5881;48.522;7.682;2023-07-08T08:01:56;24.40;1.00
11650;DHT22;5881;48.522;7.682;2023-07-08T08:04:22;24.20;1.00
11650;DHT22;5881;48.522;7.682;2023-07-08T08:06:47;24.30;1.00
11650;DHT22;5881;48.522;7.682;2023-07-08T08:09:13;24.40;1.00
11650;DHT22;5881;48.522;7.682;2023-07-08T08:11:39;24.40;1.00
11650;DHT22;5881;48.522;7.682;2023-07-08T08:14:04;24.60;1.00
11650;DHT22;5881;48.522;7.682;2023-07-08T08:16:33;24.80;1.00
11650;DHT22;5881;48.522;7.682;2023-07-08T08:18:58;25.20;1.00
11650;DHT22;5881;48.522;7.682;2023-07-08T08:21:24;25.40;1.00
11650;DHT22;5881;48.522;7.682;2023-07-08T08:23:49;27.60;1.00
11650;DHT22;5881;48.522;7.682;2023-07-08T08:26:15;29.50;1.00
11650;DHT22;5881;48.522;7.682;2023-07-08T08:28:41;29.70;1.00
11650;DHT22;5881;48.522;7.682;2023-07-08T08:31:06;29.00;1.00
11650;DHT22;5881;48.522;7.682;2023-07-08T08:33:32;29.00;1.00
11650;DHT22;5881;48.522;7.682;2023-07-08T08:35:57;30.20;1.00
11650;DHT22;5881;48.522;7.682;2023-07-08T08:38:23;29.40;1.00
11650;DHT22;5881;48.522;7.682;2023-07-08T08:40:49;29.70;1.00
11650;DHT22;5881;48.522;7.682;2023-07-08T08:43:22;30.90;1.00
11650;DHT22;5881;48.522;7.682;2023-07-08T08:48:34;30.90;1.00
11650;DHT22;5881;48.522;7.682;2023-07-08T08:51:06;31.20;1.00
11650;DHT22;5881;48.522;7.682;2023-07-08T08:53:34;32.20;1.00
11650;DHT22;5881;48.522;7.682;2023-07-08T08:56:21;32.00;1.00
11650;DHT22;5881;48.522;7.682;2023-07-08T08:59:08;32.10;1.00
11650;DHT22;5881;48.522;7.682;2023-07-08T09:01:37;32.20;1.00
11650;DHT22;5881;48.522;7.682;2023-07-08T09:04:08;32.00;1.00
11650;DHT22;5881;48.522;7.682;2023-07-08T09:06:36;31.90;1.00
11650;DHT22;5881;48.522;7.682;2023-07-08T09:09:09;31.70;1.00
11650;DHT22;5881;48.522;7.682;2023-07-08T09:11:52;32.00;1.00
11650;DHT22;5881;48.522;7.682;2023-07-08T09:14:27;31.60;1.00
11650;DHT22;5881;48.522;7.682;2023-07-08T09:22:38;32.10;1.00
11650;DHT22;5881;48.522;7.682;2023-07-08T09:25:30;31.50;1.00
11650;DHT22;5881;48.522;7.682;2023-07-08T09:27:56;32.20;1.00
11650;DHT22;5881;48.522;7.682;2023-07-08T09:30:23;32.60;1.00
11650;DHT22;5881;48.522;7.682;2023-07-08T09:32:50;32.20;1.00
11650;DHT22;5881;48.522;7.682;2023-07-08T09:35:20;31.90;1.00
11650;DHT22;5881;48.522;7.682;2023-07-08T09:37:48;32.30;1.00
11650;DHT22;5881;48.522;7.682;2023-07-08T09:40:22;32.20;1.00
11650;DHT22;5881;48.522;7.682;2023-07-08T09:42:54;32.20;1.00
11650;DHT22;5881;48.522;7.682;2023-07-08T09:45:24;31.90;1.00
11650;DHT22;5881;48.522;7.682;2023-07-08T09:47:55;32.30;1.00
11650;DHT22;5881;48.522;7.682;2023-07-08T09:50:27;33.60;1.00
11650;DHT22;5881;48.522;7.682;2023-07-08T09:52:56;32.40;1.00
11650;DHT22;5881;48.522;7.682;2023-07-08T09:55:26;32.40;1.00
11650;DHT22;5881;48.522;7.682;2023-07-08T09:57:54;32.50;1.00
11650;DHT22;5881;48.522;7.682;2023-07-08T10:00:33;33.50;1.00
11650;DHT22;5881;48.522;7.682;2023-07-08T10:03:12;32.70;1.00
11650;DHT22;5881;48.522;7.682;2023-07-08T10:05:43;34.30;1.00
11650;DHT22;5881;48.522;7.682;2023-07-08T10:08:20;32.90;1.00
11650;DHT22;5881;48.522;7.682;2023-07-08T10:10:48;33.30;1.00
11650;DHT22;5881;48.522;7.682;2023-07-08T10:13:22;32.80;1.00
11650;DHT22;5881;48.522;7.682;2023-07-08T10:15:54;31.60;1.00
11650;DHT22;5881;48.522;7.682;2023-07-08T10:18:27;31.50;1.00
11650;DHT22;5881;48.522;7.682;2023-07-08T10:23:48;30.60;1.00
11650;DHT22;5881;48.522;7.682;2023-07-08T10:26:32;30.10;1.00
11650;DHT22;5881;48.522;7.682;2023-07-08T10:29:32;30.30;1.00
11650;DHT22;5881;48.522;7.682;2023-07-08T10:34:47;32.40;1.00
11650;DHT22;5881;48.522;7.682;2023-07-08T10:40:18;33.90;1.00
11650;DHT22;5881;48.522;7.682;2023-07-08T10:45:29;33.60;1.00
11650;DHT22;5881;48.522;7.682;2023-07-08T10:56:54;34.30;1.00
11650;DHT22;5881;48.522;7.682;2023-07-08T10:59:38;33.40;1.00
11650;DHT22;5881;48.522;7.682;2023-07-08T11:05:23;33.50;1.00
11650;DHT22;5881;48.522;7.682;2023-07-08T11:07:57;33.30;1.00
11650;DHT22;5881;48.522;7.682;2023-07-08T11:10:26;33.80;1.00
11650;DHT22;5881;48.522;7.682;2023-07-08T11:13:19;34.60;1.00
11650;DHT22;5881;48.522;7.682;2023-07-08T11:16:01;34.30;1.00
11650;DHT22;5881;48.522;7.682;2023-07-08T11:21:05;33.40;1.00
11650;DHT22;5881;48.522;7.682;2023-07-08T11:23:40;34.10;1.00
11650;DHT22;5881;48.522;7.682;2023-07-08T11:28:49;33.70;1.00
11650;DHT22;5881;48.522;7.682;2023-07-08T11:31:16;34.10;1.00
11650;DHT22;5881;48.522;7.682;2023-07-08T11:33:43;34.60;1.00
11650;DHT22;5881;48.522;7.682;2023-07-08T11:36:10;34.30;1.00
11650;DHT22;5881;48.522;7.682;2023-07-08T11:38:37;34.00;1.00
11650;DHT22;5881;48.522;7.682;2023-07-08T11:41:14;34.20;1.00
11650;DHT22;5881;48.522;7.682;2023-07-08T11:43:48;34.10;1.00
11650;DHT22;5881;48.522;7.682;2023-07-08T11:46:20;33.40;1.00
11650;DHT22;5881;48.522;7.682;2023-07-08T11:48:48;33.10;1.00
11650;DHT22;5881;48.522;7.682;2023-07-08T11:51:19;32.90;1.00
11650;DHT22;5881;48.522;7.682;2023-07-08T11:53:51;33.40;1.00
11650;DHT22;5881;48.522;7.682;2023-07-08T11:56:25;32.80;1.00
11650;DHT22;5881;48.522;7.682;2023-07-08T11:59:08;33.70;1.00
11650;DHT22;5881;48.522;7.682;2023-07-08T12:02:00;33.70;1.00
11650;DHT22;5881;48.522;7.682;2023-07-08T12:04:34;33.70;1.00
11650;DHT22;5881;48.522;7.682;2023-07-08T12:07:19;33.60;1.00
11650;DHT22;5881;48.522;7.682;2023-07-08T12:09:57;32.60;1.00
11650;DHT22;5881;48.522;7.682;2023-07-08T12:12:37;33.10;1.00
11650;DHT22;5881;48.522;7.682;2023-07-08T12:17:44;33.80;1.00
11650;DHT22;5881;48.522;7.682;2023-07-08T12:20:38;33.00;1.00
11650;DHT22;5881;48.522;7.682;2023-07-08T12:23:09;33.10;1.00
11650;DHT22;5881;48.522;7.682;2023-07-08T12:25:36;33.80;1.00
11650;DHT22;5881;48.522;7.682;2023-07-08T12:28:02;33.30;1.00
11650;DHT22;5881;48.522;7.682;2023-07-08T12:30:29;33.50;1.00
11650;DHT22;5881;48.522;7.682;2023-07-08T12:32:56;33.10;1.00
11650;DHT22;5881;48.522;7.682;2023-07-08T12:35:27;32.90;1.00
11650;DHT22;5881;48.522;7.682;2023-07-08T12:38:05;32.90;1.00
11650;DHT22;5881;48.522;7.682;2023-07-08T12:40:32;33.10;1.00
11650;DHT22;5881;48.522;7.682;2023-07-08T12:42:58;33.10;1.00
11650;DHT22;5881;48.522;7.682;2023-07-08T12:45:30;33.10;1.00
11650;DHT22;5881;48.522;7.682;2023-07-08T12:47:56;33.20;1.00
11650;DHT22;5881;48.522;7.682;2023-07-08T12:50:22;33.40;1.00
11650;DHT22;5881;48.522;7.682;2023-07-08T12:52:48;32.90;1.00
11650;DHT22;5881;48.522;7.682;2023-07-08T12:55:15;33.40;1.00
11650;DHT22;5881;48.522;7.682;2023-07-08T12:57:44;33.80;1.00
11650;DHT22;5881;48.522;7.682;2023-07-08T13:00:26;32.70;1.00
11650;DHT22;5881;48.522;7.682;2023-07-08T13:02:57;32.60;1.00
11650;DHT22;5881;48.522;7.682;2023-07-08T13:05:24;32.60;1.00
11650;DHT22;5881;48.522;7.682;2023-07-08T13:07:51;32.60;1.00
11650;DHT22;5881;48.522;7.682;2023-07-08T13:10:22;32.30;1.00
11650;DHT22;5881;48.522;7.682;2023-07-08T13:12:55;32.60;1.00
11650;DHT22;5881;48.522;7.682;2023-07-08T13:15:26;32.30;1.00
11650;DHT22;5881;48.522;7.682;2023-07-08T13:17:54;32.40;1.00
11650;DHT22;5881;48.522;7.682;2023-07-08T13:20:20;32.20;1.00
11650;DHT22;5881;48.522;7.682;2023-07-08T13:22:54;32.10;1.00
11650;DHT22;5881;48.522;7.682;2023-07-08T13:25:27;32.40;1.00
11650;DHT22;5881;48.522;7.682;2023-07-08T13:27:58;32.60;1.00
11650;DHT22;5881;48.522;7.682;2023-07-08T13:30:26;33.10;1.00
11650;DHT22;5881;48.522;7.682;2023-07-08T13:32:57;32.90;1.00
11650;DHT22;5881;48.522;7.682;2023-07-08T13:35:39;32.60;1.00
11650;DHT22;5881;48.522;7.682;2023-07-08T13:38:11;32.90;1.00
11650;DHT22;5881;48.522;7.682;2023-07-08T13:40:44;32.40;1.00
11650;DHT22;5881;48.522;7.682;2023-07-08T13:43:10;33.00;1.00
11650;DHT22;5881;48.522;7.682;2023-07-08T13:45:36;32.40;1.00
11650;DHT22;5881;48.522;7.682;2023-07-08T13:48:27;32.40;1.00
11650;DHT22;5881;48.522;7.682;2023-07-08T13:53:46;32.60;1.00
11650;DHT22;5881;48.522;7.682;2023-07-08T13:56:14;32.20;1.00
11650;DHT22;5881;48.522;7.682;2023-07-08T13:58:45;32.10;1.00
11650;DHT22;5881;48.522;7.682;2023-07-08T14:01:17;32.10;1.00
11650;DHT22;5881;48.522;7.682;2023-07-08T14:03:43;32.40;1.00
11650;DHT22;5881;48.522;7.682;2023-07-08T14:06:21;32.50;1.00
11650;DHT22;5881;48.522;7.682;2023-07-08T14:08:47;32.40;1.00
11650;DHT22;5881;48.522;7.682;2023-07-08T14:11:13;32.60;1.00
11650;DHT22;5881;48.522;7.682;2023-07-08T14:13:38;32.60;1.00
11650;DHT22;5881;48.522;7.682;2023-07-08T14:16:29;32.50;1.00
11650;DHT22;5881;48.522;7.682;2023-07-08T14:19:01;32.60;1.00
11650;DHT22;5881;48.522;7.682;2023-07-08T14:21:29;33.00;1.00
11650;DHT22;5881;48.522;7.682;2023-07-08T14:23:55;32.70;1.00
11650;DHT22;5881;48.522;7.682;2023-07-08T14:26:21;33.00;1.00
11650;DHT22;5881;48.522;7.682;2023-07-08T14:28:46;32.50;1.00
11650;DHT22;5881;48.522;7.682;2023-07-08T14:31:14;32.70;1.00
11650;DHT22;5881;48.522;7.682;2023-07-08T14:33:40;33.00;1.00
11650;DHT22;5881;48.522;7.682;2023-07-08T14:36:12;32.80;1.00
11650;DHT22;5881;48.522;7.682;2023-07-08T14:38:39;32.60;1.00
11650;DHT22;5881;48.522;7.682;2023-07-08T14:41:05;32.40;1.00
11650;DHT22;5881;48.522;7.682;2023-07-08T14:43:32;32.60;1.00
11650;DHT22;5881;48.522;7.682;2023-07-08T14:46:00;32.30;1.00
11650;DHT22;5881;48.522;7.682;2023-07-08T14:48:30;32.10;1.00
11650;DHT22;5881;48.522;7.682;2023-07-08T14:50:56;32.00;1.00
11650;DHT22;5881;48.522;7.682;2023-07-08T14:53:22;32.20;1.00
11650;DHT22;5881;48.522;7.682;2023-07-08T14:55:50;32.60;1.00
11650;DHT22;5881;48.522;7.682;2023-07-08T14:58:27;32.40;1.00
11650;DHT22;5881;48.522;7.682;2023-07-08T15:00:56;32.40;1.00
11650;DHT22;5881;48.522;7.682;2023-07-08T15:03:25;32.20;1.00
11650;DHT22;5881;48.522;7.682;2023-07-08T15:05:51;32.00;1.00
11650;DHT22;5881;48.522;7.682;2023-07-08T15:08:17;32.10;1.00
11650;DHT22;5881;48.522;7.682;2023-07-08T15:10:49;32.20;1.00
11650;DHT22;5881;48.522;7.682;2023-07-08T15:13:18;32.60;1.00
11650;DHT22;5881;48.522;7.682;2023-07-08T15:15:45;32.70;1.00
11650;DHT22;5881;48.522;7.682;2023-07-08T15:18:12;32.60;1.00
11650;DHT22;5881;48.522;7.682;2023-07-08T15:20:39;32.60;1.00
11650;DHT22;5881;48.522;7.682;2023-07-08T15:23:05;32.70;1.00
11650;DHT22;5881;48.522;7.682;2023-07-08T15:25:31;32.80;1.00
11650;DHT22;5881;48.522;7.682;2023-07-08T15:27:58;32.30;1.00
11650;DHT22;5881;48.522;7.682;2023-07-08T15:30:26;32.20;1.00
11650;DHT22;5881;48.522;7.682;2023-07-08T15:32:52;32.20;1.00
11650;DHT22;5881;48.522;7.682;2023-07-08T15:35:28;32.40;1.00
11650;DHT22;5881;48.522;7.682;2023-07-08T15:37:59;32.60;1.00
11650;DHT22;5881;48.522;7.682;2023-07-08T15:40:30;32.60;1.00
11650;DHT22;5881;48.522;7.682;2023-07-08T15:42:58;32.80;1.00
11650;DHT22;5881;48.522;7.682;2023-07-08T15:45:26;32.70;1.00
11650;DHT22;5881;48.522;7.682;2023-07-08T15:47:53;32.70;1.00
11650;DHT22;5881;48.522;7.682;2023-07-08T15:50:21;32.80;1.00
11650;DHT22;5881;48.522;7.682;2023-07-08T15:52:47;32.80;1.00
11650;DHT22;5881;48.522;7.682;2023-07-08T15:55:16;32.50;1.00
11650;DHT22;5881;48.522;7.682;2023-07-08T15:58:00;32.50;1.00
11650;DHT22;5881;48.522;7.682;2023-07-08T16:00:28;32.60;1.00
11650;DHT22;5881;48.522;7.682;2023-07-08T16:02:57;32.30;1.00
11650;DHT22;5881;48.522;7.682;2023-07-08T16:05:24;32.40;1.00
11650;DHT22;5881;48.522;7.682;2023-07-08T16:07:52;32.40;1.00
11650;DHT22;5881;48.522;7.682;2023-07-08T16:10:19;32.20;1.00
11650;DHT22;5881;48.522;7.682;2023-07-08T16:12:46;32.20;1.00
11650;DHT22;5881;48.522;7.682;2023-07-08T16:15:14;32.20;1.00
11650;DHT22;5881;48.522;7.682;2023-07-08T16:17:41;32.20;1.00
11650;DHT22;5881;48.522;7.682;2023-07-08T16:20:16;32.30;1.00
11650;DHT22;5881;48.522;7.682;2023-07-08T16:22:43;32.40;1.00
11650;DHT22;5881;48.522;7.682;2023-07-08T16:25:12;32.20;1.00
11650;DHT22;5881;48.522;7.682;2023-07-08T16:27:38;32.30;1.00
11650;DHT22;5881;48.522;7.682;2023-07-08T16:30:05;32.40;1.00
11650;DHT22;5881;48.522;7.682;2023-07-08T16:32:31;32.30;1.00
11650;DHT22;5881;48.522;7.682;2023-07-08T16:34:56;32.30;1.00
11650;DHT22;5881;48.522;7.682;2023-07-08T16:37:22;32.20;1.00
11650;DHT22;5881;48.522;7.682;2023-07-08T16:39:47;32.00;1.00
11650;DHT22;5881;48.522;7.682;2023-07-08T16:42:15;31.90;1.00
11650;DHT22;5881;48.522;7.682;2023-07-08T16:44:41;31.70;1.00
11650;DHT22;5881;48.522;7.682;2023-07-08T16:47:08;31.60;1.00
11650;DHT22;5881;48.522;7.682;2023-07-08T16:49:34;31.70;1.00
11650;DHT22;5881;48.522;7.682;2023-07-08T16:52:00;31.80;1.00
11650;DHT22;5881;48.522;7.682;2023-07-08T16:54:25;31.80;1.00
11650;DHT22;5881;48.522;7.682;2023-07-08T16:56:51;31.90;1.00
11650;DHT22;5881;48.522;7.682;2023-07-08T16:59:16;31.90;1.00